Mucajai, Brazil
Current Conditions -  °F | °C
As of 2:00 PM on Thursday 18 Dec 2014 (Local Time) from SBBV Reporting Station
Rain Showers Rain Showers  
Wind Chill: 88°   Ceiling: Unl
Heat Index: 90°   Visibility: 6mi
Dew Point: 66°   Wind: 12mph
Humidity: 49%   Direction: 50°NE
Pressure: NA   Gusts: NA
Location:  2.43°N, 60.9°W
Report Text: SBBV 181800Z 05010KT 9999 VCSH SCT040 FEW045TCU SCT100 31/19 Q1009
Loading
Personal Weather Stations






























Interactive Weather Map New forecast layout! Learn more

10-Day Weather Forecast

Advertisements
Track Severe Weather on mobile